Harrisburg, Pennsylvania
Current Conditions -  °F | °C
As of 11:56 AM on Wednesday 22 Oct 2014 (Local Time) from KCXY Reporting Station
Light Rain Light Rain  
Wind Chill: 54°   Ceiling: 2000
Heat Index: 54°   Visibility: 10mi
Dew Point: 48°   Wind: 8mph
Humidity: 80%   Direction: 360°N
Pressure: 29.99"   Gusts: NA
Location:  40.26°N, 76.88°W
Report Text: KCXY 221556Z 36007KT 10SM -RA OVC020 12/09 A2999 RMK AO2 SLP157 P0003 T01220089
Loading
Personal Weather Stations






























Interactive Weather Map
Tropical Storm Tracking
New forecast layout! Learn more

10-Day Weather Forecast

Advertisements
Track Severe Weather on mobile